Time;durP1;ratioP1;P1;durP2;ratioP2;P2;SDS_P1;SDS_P2;PMS_P1;PMS_P2;Temp;Humidity;BMP_temperature;BMP_pressure;BME280_temperature;BME280_humidity;BME280_pressure;Samples;Min_cycle;Max_cycle;Signal;HPM_P1;HPM_P2
2022/12/27 00:02:16;;;;;;;;;4.00;4.00;;;;;14.33;74.53;101682.72;5055059;28;45724;-67
2022/12/27 00:04:41;;;;;;;;;3.67;3.67;;;;;14.35;74.25;101674.03;5055258;28;45464;-72
2022/12/27 00:07:07;;;;;;;;;4.67;3.33;;;;;14.24;74.12;101650.88;5055181;28;45529;-66
2022/12/27 00:09:33;;;;;;;;;3.00;3.00;;;;;14.35;74.24;101668.75;5055877;28;45380;-75
2022/12/27 00:11:58;;;;;;;;;7.00;5.00;;;;;14.33;74.64;101677.47;5051558;28;45543;-76
2022/12/27 00:14:24;;;;;;;;;8.50;8.00;;;;;14.01;74.49;101618.63;5055223;28;45487;-81
2022/12/27 00:16:49;;;;;;;;;9.50;8.50;;;;;14.27;74.92;101669.41;5055350;28;45391;-73
2022/12/27 00:19:15;;;;;;;;;5.50;5.00;;;;;14.23;74.74;101664.88;5055314;28;45434;-70
2022/12/27 00:21:40;;;;;;;;;4.00;3.67;;;;;14.16;74.62;101648.84;5054580;28;46031;-67
2022/12/27 00:24:06;;;;;;;;;4.00;3.33;;;;;13.88;74.27;101591.03;5052817;28;45521;-69
2022/12/27 00:26:34;;;;;;;;;3.00;3.00;;;;;14.17;74.89;101641.03;5055682;28;45592;-69
2022/12/27 00:29:00;;;;;;;;;2.00;2.00;;;;;14.21;74.74;101647.28;5054407;28;45580;-78
2022/12/27 00:31:28;;;;;;;;;4.33;3.00;;;;;14.17;75.64;101653.28;5054896;28;46100;-75
2022/12/27 00:33:55;;;;;;;;;2.67;2.67;;;;;14.13;75.11;101650.53;5053476;28;45572;-81
2022/12/27 00:36:26;;;;;;;;;3.67;3.00;;;;;13.85;74.62;101606.69;5055175;28;45833;-71
2022/12/27 00:38:53;;;;;;;;;2.00;2.00;;;;;14.22;75.08;101659.56;5055476;28;45248;-69
2022/12/27 00:41:20;;;;;;;;;3.50;2.50;;;;;14.25;74.71;101650.06;5054465;28;46034;-69
2022/12/27 00:43:46;;;;;;;;;3.00;3.00;;;;;14.11;74.74;101625.94;5054866;28;45534;-77
2022/12/27 00:46:12;;;;;;;;;3.67;3.00;;;;;14.24;75.14;101647.38;5045191;28;45304;-74
2022/12/27 00:48:38;;;;;;;;;3.00;2.00;;;;;14.20;75.44;101641.13;5055361;28;45509;-68
2022/12/27 00:51:16;;;;;;;;;4.00;4.00;;;;;14.07;75.95;101646.81;5051881;28;45620;-70
2022/12/27 00:53:42;;;;;;;;;6.00;6.00;;;;;14.02;75.95;101645.78;5054669;28;46217;-70
2022/12/27 00:56:10;;;;;;;;;1.67;1.67;;;;;14.08;75.57;101638.97;5054812;28;45836;-72
2022/12/27 00:58:37;;;;;;;;;2.00;2.00;;;;;14.12;75.26;101632.09;5055753;28;45489;-81
2022/12/27 01:01:09;;;;;;;;;2.33;2.33;;;;;13.99;75.15;101616.78;5055001;28;46504;-80
2022/12/27 01:03:34;;;;;;;;;5.67;3.00;;;;;14.10;74.98;101633.78;5055614;28;45370;-78
2022/12/27 01:06:07;;;;;;;;;2.00;2.00;;;;;14.13;74.78;101629.53;5055505;28;45529;-83
2022/12/27 01:08:33;;;;;;;;;2.00;2.00;;;;;14.16;74.38;101625.19;5055865;28;45508;-69
2022/12/27 01:10:58;;;;;;;;;2.33;2.33;;;;;14.17;74.13;101632.25;5055667;28;45346;-79
2022/12/27 01:13:24;;;;;;;;;2.00;1.00;;;;;13.78;73.98;101564.41;5055349;28;45509;-69
2022/12/27 01:15:49;;;;;;;;;3.00;2.00;;;;;14.14;73.70;101627.78;5055883;28;45367;-81
2022/12/27 01:18:15;;;;;;;;;3.00;3.00;;;;;14.09;73.83;101622.38;5056256;28;45375;-70
2022/12/27 01:20:40;;;;;;;;;1.67;1.67;;;;;14.00;73.72;101608.94;5055251;28;46121;-78
2022/12/27 01:23:06;;;;;;;;;2.00;2.00;;;;;13.99;73.92;101622.91;5055771;28;45483;-70
2022/12/27 01:25:31;;;;;;;;;2.00;2.00;;;;;13.94;73.90;101621.88;5055470;28;45655;-77
2022/12/27 01:27:57;;;;;;;;;2.00;1.00;;;;;13.67;74.27;101585.97;5055647;28;45543;-81
2022/12/27 01:30:22;;;;;;;;;2.00;2.00;;;;;13.90;74.25;101623.50;5058839;28;45593;-79
2022/12/27 01:32:48;;;;;;;;;1.33;1.33;;;;;13.88;74.50;101617.28;5058671;28;45446;-72
2022/12/27 01:35:13;;;;;;;;;3.33;3.33;;;;;13.90;74.79;101606.84;5058526;28;45521;-81
2022/12/27 01:37:39;;;;;;;;;2.67;2.33;;;;;13.89;74.34;101610.34;5059004;28;45521;-79
2022/12/27 01:40:05;;;;;;;;;4.00;2.67;;;;;13.88;74.85;101608.53;5058923;28;46260;-80
2022/12/27 01:45:22;;;;;;;;;4.00;4.00;;;;;13.81;75.03;101603.94;5059683;28;45317;-81
2022/12/27 01:47:50;;;;;;;;;2.00;2.00;;;;;13.82;74.86;101603.06;5060053;28;45359;-79
2022/12/27 01:50:48;;;;;;;;;3.00;3.00;;;;;13.76;75.60;101610.75;5059340;28;45467;-68
2022/12/27 01:53:18;;;;;;;;;4.00;3.00;;;;;13.70;75.43;101614.94;5047095;28;45342;-74
2022/12/27 01:55:47;;;;;;;;;3.67;3.00;;;;;13.70;75.36;101608.81;5059411;28;45600;-77
2022/12/27 01:58:15;;;;;;;;;4.00;4.00;;;;;13.70;75.18;101608.81;5059465;28;45847;-81
2022/12/27 02:00:45;;;;;;;;;4.00;3.00;;;;;13.61;75.47;101612.03;5059012;28;45227;-74
2022/12/27 02:03:16;;;;;;;;;4.00;3.00;;;;;13.65;76.00;101632.28;5058391;28;45486;-81
2022/12/27 02:05:42;;;;;;;;;2.67;2.67;;;;;13.69;75.40;101635.91;5057882;28;45536;-74
2022/12/27 02:08:33;;;;;;;;;4.33;3.67;;;;;13.72;75.75;101642.13;5058307;28;45486;-82
2022/12/27 02:10:59;;;;;;;;;3.00;2.33;;;;;13.73;75.34;101638.69;5058300;28;45515;-82
2022/12/27 02:13:27;;;;;;;;;2.33;2.33;;;;;13.70;75.26;101619.31;5057687;28;45352;-68
2022/12/27 02:15:53;;;;;;;;;3.00;3.00;;;;;13.78;74.93;101630.97;5058326;28;45576;-82
2022/12/27 02:18:19;;;;;;;;;5.00;4.67;;;;;13.72;75.14;101628.13;5059287;28;45481;-78
2022/12/27 02:21:19;;;;;;;;;3.33;3.00;;;;;13.63;75.44;101631.34;5058228;28;46089;-79
2022/12/27 02:24:04;;;;;;;;;2.00;2.00;;;;;13.52;75.74;101625.69;5044743;28;45517;-81
2022/12/27 02:27:02;;;;;;;;;5.33;3.00;;;;;13.42;75.67;101630.56;5058010;28;45410;-71
2022/12/27 02:29:56;;;;;;;;;2.33;2.00;;;;;13.35;76.54;101645.22;5053244;28;45479;-82
2022/12/27 02:32:41;;;;;;;;;3.33;3.33;;;;;13.31;76.36;101641.59;5057994;28;45518;-74
2022/12/27 02:35:19;;;;;;;;;2.00;2.00;;;;;13.32;76.14;101632.84;5057620;28;45485;-69
2022/12/27 02:37:49;;;;;;;;;3.33;3.33;;;;;13.07;76.07;101591.72;5056881;28;45457;-83
2022/12/27 02:55:06;;;;;;;;;2.67;2.67;;;;;13.33;76.21;101632.03;5057175;28;45841;-70
2022/12/27 02:57:44;;;;;;;;;3.00;3.00;;;;;13.31;75.96;101633.72;5057442;28;45438;-69
2022/12/27 03:03:30;;;;;;;;;3.75;2.75;;;;;13.40;75.61;101624.38;5057063;28;45450;-67
2022/12/27 03:06:38;;;;;;;;;2.00;2.00;;;;;13.40;75.76;101621.75;5039147;28;47778;-67
2022/12/27 03:18:13;;;;;;;;;2.00;1.00;;;;;13.34;76.12;101604.06;5056535;28;45916;-81
2022/12/27 03:26:16;;;;;;;;;7.00;6.00;;;;;13.41;75.91;101605.16;5057531;28;45399;-71
2022/12/27 03:34:38;;;;;;;;;3.00;3.00;;;;;13.41;75.59;101607.78;5056771;28;45465;-68
2022/12/27 03:40:19;;;;;;;;;3.00;3.00;;;;;13.52;75.43;101614.31;5056905;28;46245;-73
2022/12/27 03:43:09;;;;;;;;;3.00;3.00;;;;;13.54;74.68;101602.13;5056675;28;45432;-78
2022/12/27 03:49:10;;;;;;;;;3.67;2.00;;;;;13.53;75.18;101606.50;5047010;28;45687;-68
2022/12/27 03:51:41;;;;;;;;;2.00;2.00;;;;;13.53;75.49;101600.34;5055812;28;46140;-68
2022/12/27 03:54:15;;;;;;;;;3.00;3.00;;;;;13.55;75.51;101610.88;5055742;28;45426;-68
2022/12/27 03:56:41;;;;;;;;;16.00;15.25;;;;;13.56;75.28;101621.44;5056344;28;45387;-70
2022/12/27 03:59:09;;;;;;;;;19.00;17.00;;;;;13.42;75.49;101591.22;5056750;28;45452;-73
2022/12/27 04:01:34;;;;;;;;;4.00;4.00;;;;;13.49;75.30;101595.84;5056513;28;45209;-67
2022/12/27 04:03:59;;;;;;;;;3.25;3.00;;;;;13.62;75.13;101619.03;5055493;28;45426;-67
2022/12/27 04:06:25;;;;;;;;;4.00;3.00;;;;;13.64;75.04;101611.22;5056645;28;45527;-73
2022/12/27 04:36:10;;;;;;;;;3.00;2.00;;;;;13.47;75.93;101608.91;5056173;28;45410;-68
2022/12/27 04:38:35;;;;;;;;;2.00;2.00;;;;;13.28;76.33;101581.06;5056233;28;45413;-83
2022/12/27 04:54:58;;;;;;;;;5.00;5.00;;;;;13.42;76.04;101604.31;5041762;28;45357;-69
2022/12/27 04:57:27;;;;;;;;;3.00;3.00;;;;;13.42;76.15;101612.22;5055651;28;45464;-70
2022/12/27 05:02:37;;;;;;;;;3.00;2.67;;;;;13.43;76.08;101611.34;5056068;28;45458;-70
2022/12/27 05:05:03;;;;;;;;;3.67;2.00;;;;;13.44;75.74;101603.53;5058500;28;46016;-72
2022/12/27 05:15:41;;;;;;;;;2.75;2.00;;;;;13.36;75.79;101599.75;5059296;28;45559;-67
2022/12/27 05:18:09;;;;;;;;;3.00;2.00;;;;;13.27;76.86;101609.88;5042306;28;45517;-72
2022/12/27 05:20:34;;;;;;;;;3.75;3.75;;;;;13.17;76.96;101611.31;5064076;28;45482;-67
2022/12/27 05:25:45;;;;;;;;;3.33;3.00;;;;;13.04;77.40;101607.31;5062403;28;45685;-81
2022/12/27 05:28:12;;;;;;;;;3.00;2.67;;;;;13.07;76.66;101596.97;5061152;28;45522;-79
2022/12/27 05:30:40;;;;;;;;;3.00;2.33;;;;;13.15;76.68;101592.00;5059790;28;45340;-81
2022/12/27 05:33:05;;;;;;;;;4.00;4.00;;;;;13.19;76.15;101592.97;5060189;28;45375;-73
2022/12/27 05:35:33;;;;;;;;;3.00;2.33;;;;;12.96;76.63;101558.94;5059938;28;46036;-80
2022/12/27 05:37:59;;;;;;;;;2.33;2.33;;;;;13.20;76.67;101594.78;5059804;28;45642;-81
2022/12/27 05:40:25;;;;;;;;;3.00;3.00;;;;;12.90;77.31;101567.47;5059918;28;45376;-82
2022/12/27 05:42:51;;;;;;;;;3.00;3.00;;;;;13.16;77.00;101606.88;5059977;28;45574;-82
2022/12/27 05:45:17;;;;;;;;;2.33;2.00;;;;;12.94;77.27;101560.63;5059650;28;46259;-80
2022/12/27 05:47:43;;;;;;;;;3.33;3.33;;;;;13.16;77.23;101606.88;5057367;28;45473;-78
2022/12/27 05:50:09;;;;;;;;;4.67;3.67;;;;;12.91;77.42;101558.78;5073093;28;45588;-82
2022/12/27 05:52:36;;;;;;;;;3.00;3.00;;;;;13.18;77.10;101613.06;5058574;28;45443;-81
2022/12/27 05:55:01;;;;;;;;;5.00;4.00;;;;;13.22;76.87;101612.34;5058294;28;45335;-80
2022/12/27 05:57:27;;;;;;;;;5.00;3.00;;;;;13.26;76.85;101610.72;5058262;28;45271;-81
2022/12/27 05:59:52;;;;;;;;;3.00;3.00;;;;;13.25;76.86;101607.22;5057575;28;45737;-81
2022/12/27 06:02:18;;;;;;;;;4.00;3.00;;;;;13.28;76.33;101594.19;5070412;28;45209;-81
2022/12/27 06:04:43;;;;;;;;;3.00;3.00;;;;;13.30;76.67;101597.78;5058354;28;46020;-83
2022/12/27 06:07:10;;;;;;;;;3.33;3.00;;;;;13.29;76.59;101592.44;5057867;28;45366;-82
2022/12/27 06:09:35;;;;;;;;;3.33;2.67;;;;;13.26;76.88;101593.25;5058755;28;45512;-81
2022/12/27 06:12:01;;;;;;;;;3.00;3.00;;;;;13.28;77.08;101599.44;5057097;28;45524;-81
2022/12/27 06:14:27;;;;;;;;;3.00;3.00;;;;;13.23;77.46;101600.09;5058096;28;46101;-73
2022/12/27 06:16:53;;;;;;;;;2.00;2.00;;;;;13.06;77.01;101566.28;5058716;28;45253;-82
2022/12/27 06:19:18;;;;;;;;;2.00;2.00;;;;;13.28;76.89;101594.19;5060099;28;45438;-80
2022/12/27 06:21:44;;;;;;;;;3.00;2.00;;;;;13.23;77.07;101585.28;5058864;28;45384;-80
2022/12/27 06:24:09;;;;;;;;;2.00;2.00;;;;;13.27;77.18;101599.38;5059422;28;46125;-82
2022/12/27 06:26:35;;;;;;;;;4.00;4.00;;;;;13.28;77.48;101596.81;5058093;28;45517;-79
2022/12/27 06:29:00;;;;;;;;;4.67;4.00;;;;;13.28;77.59;101593.31;5053585;28;45448;-83
2022/12/27 06:31:26;;;;;;;;;3.00;3.00;;;;;13.27;77.27;101589.81;5054053;28;45384;-77
2022/12/27 06:33:53;;;;;;;;;3.25;3.00;;;;;13.24;77.83;101581.81;5041386;28;45436;-82
2022/12/27 06:36:25;;;;;;;;;4.00;4.00;;;;;13.24;77.61;101587.06;5057576;28;45873;-78
2022/12/27 06:38:51;;;;;;;;;3.00;2.00;;;;;13.25;77.54;101588.84;5057276;28;45353;-82
2022/12/27 06:41:17;;;;;;;;;2.00;1.00;;;;;13.04;77.45;101546.09;5055706;28;45860;-72
2022/12/27 06:43:44;;;;;;;;;3.00;3.00;;;;;13.19;77.59;101586.00;5056995;28;46360;-78
2022/12/27 06:46:15;;;;;;;;;1.50;1.00;;;;;13.18;77.80;101599.06;5055533;28;45321;-73
2022/12/27 06:48:40;;;;;;;;;4.50;4.50;;;;;13.08;77.51;101582.09;5054777;28;46176;-79
2022/12/27 06:51:08;;;;;;;;;5.00;5.00;;;;;13.20;77.61;101595.66;5056613;28;45533;-81
2022/12/27 06:53:37;;;;;;;;;6.25;6.00;;;;;13.01;77.44;101564.34;5056985;28;45357;-79
2022/12/27 06:56:06;;;;;;;;;7.67;6.67;;;;;13.12;77.64;101591.88;5056760;28;45556;-77
2022/12/27 06:58:32;;;;;;;;;28.00;26.25;;;;;12.86;77.84;101565.56;5056283;28;45515;-76
2022/12/27 07:01:06;;;;;;;;;6.50;5.75;;;;;13.05;78.10;101603.88;5056933;28;45422;-77
2022/12/27 07:03:32;;;;;;;;;1.00;0.25;;;;;12.99;78.46;101602.72;5056089;28;45579;-77
2022/12/27 07:06:01;;;;;;;;;6.00;6.00;;;;;13.00;78.53;101613.28;5056938;28;45277;-81
2022/12/27 07:08:26;;;;;;;;;5.25;4.00;;;;;13.07;78.06;101611.78;5056719;28;45592;-82
2022/12/27 07:10:52;;;;;;;;;5.25;4.00;;;;;13.12;77.94;101610.22;5056481;28;45611;-72
2022/12/27 07:13:17;;;;;;;;;5.75;5.75;;;;;13.14;77.55;101613.81;5055949;28;45976;-82
2022/12/27 07:15:46;;;;;;;;;3.33;3.33;;;;;13.02;77.17;101584.50;5053749;28;45449;-78
2022/12/27 07:18:12;;;;;;;;;5.00;5.00;;;;;13.13;77.20;101606.78;5056310;28;45430;-82
2022/12/27 07:20:37;;;;;;;;;4.25;4.25;;;;;13.12;77.69;101610.22;5057117;28;45418;-83
2022/12/27 07:23:03;;;;;;;;;5.00;5.00;;;;;13.08;78.11;101613.56;5056628;28;45947;-82
2022/12/27 07:25:28;;;;;;;;;6.50;5.75;;;;;13.08;78.09;101621.44;5056592;28;45209;-77
2022/12/27 07:27:54;;;;;;;;;9.50;9.00;;;;;13.10;77.89;101620.66;5055232;28;45502;-82
2022/12/27 07:30:19;;;;;;;;;13.00;12.50;;;;;13.01;78.09;101603.69;5056543;28;45446;-81
2022/12/27 07:32:46;;;;;;;;;10.00;9.25;;;;;13.05;77.49;101608.19;5056283;28;45559;-80
2022/12/27 07:35:12;;;;;;;;;12.25;11.25;;;;;13.03;77.48;101602.00;5053218;28;45429;-73
2022/12/27 07:37:37;;;;;;;;;17.50;16.50;;;;;13.05;77.37;101602.97;5053771;28;45315;-82
2022/12/27 07:40:03;;;;;;;;;10.25;9.25;;;;;13.10;76.94;101615.41;5056649;28;45557;-78
2022/12/27 07:42:29;;;;;;;;;9.75;9.00;;;;;13.08;77.47;101613.56;5055699;28;46041;-81
2022/12/27 07:44:54;;;;;;;;;9.00;9.00;;;;;13.06;77.77;101615.25;5056079;28;47077;-81
2022/12/27 07:47:20;;;;;;;;;6.75;6.50;;;;;13.04;77.96;101622.16;5056372;28;45524;-82
2022/12/27 07:49:45;;;;;;;;;6.25;5.00;;;;;13.06;77.62;101624.00;5056360;28;45429;-81
2022/12/27 07:52:11;;;;;;;;;7.00;6.00;;;;;13.04;77.32;101620.44;5056542;28;46179;-83
2022/12/27 07:54:36;;;;;;;;;5.00;4.50;;;;;13.09;77.58;101626.75;5056275;28;45564;-81
2022/12/27 07:57:02;;;;;;;;;6.00;5.67;;;;;13.09;77.58;101621.50;5056337;28;46463;-83
2022/12/27 07:59:27;;;;;;;;;5.50;5.50;;;;;13.12;77.70;101623.34;5057188;28;45516;-82
2022/12/27 08:02:05;;;;;;;;;7.00;6.00;;;;;13.12;77.91;101620.72;5056680;28;45405;-81
2022/12/27 08:04:34;;;;;;;;;9.75;9.00;;;;;13.09;77.94;101621.50;5056552;28;45537;-83
2022/12/27 08:07:04;;;;;;;;;13.50;10.50;;;;;13.05;77.55;101613.44;5055109;28;45514;-85
2022/12/27 08:09:35;;;;;;;;;7.00;6.50;;;;;13.10;77.53;101623.28;5057753;28;45585;-83
2022/12/27 08:12:00;;;;;;;;;5.33;5.33;;;;;12.99;77.32;101607.97;5046223;28;45529;-85
2022/12/27 08:14:26;;;;;;;;;5.50;5.25;;;;;13.17;77.22;101624.41;5051047;28;45371;-84
2022/12/27 08:16:51;;;;;;;;;8.00;7.25;;;;;13.20;76.90;101627.13;5056904;28;45439;-84
2022/12/27 08:19:20;;;;;;;;;7.50;6.75;;;;;13.06;76.96;101599.50;5057665;28;45466;-83
2022/12/27 08:21:45;;;;;;;;;12.00;11.25;;;;;13.25;76.92;101625.59;5056369;28;46009;-84
2022/12/27 08:24:11;;;;;;;;;9.25;8.00;;;;;13.29;76.64;101627.53;5057936;28;45383;-82
2022/12/27 08:26:36;;;;;;;;;12.00;9.75;;;;;13.36;76.38;101630.34;5057615;28;45387;-82
2022/12/27 08:29:02;;;;;;;;;11.75;11.25;;;;;13.43;76.36;101632.34;5057658;28;45414;-80
2022/12/27 08:31:27;;;;;;;;;20.25;17.50;;;;;13.50;76.16;101630.00;5057902;28;45658;-80
2022/12/27 08:33:55;;;;;;;;;6.00;4.75;;;;;13.59;76.07;101634.69;5057708;28;45271;-80
2022/12/27 08:36:20;;;;;;;;;8.33;7.00;;;;;13.66;75.67;101638.41;5057875;28;45353;-84
2022/12/27 08:38:46;;;;;;;;;6.25;6.00;;;;;13.57;75.53;101612.75;5058484;28;45485;-82
2022/12/27 08:41:11;;;;;;;;;5.75;4.75;;;;;13.74;75.57;101634.31;5061190;28;45941;-83
2022/12/27 08:43:37;;;;;;;;;10.25;9.25;;;;;13.75;75.41;101637.84;5060505;28;45311;-81
2022/12/27 08:46:04;;;;;;;;;9.67;8.00;;;;;13.70;75.35;101635.94;5049878;28;45679;-83
2022/12/27 08:48:32;;;;;;;;;8.00;7.67;;;;;13.72;75.57;101642.13;5053654;28;45609;-82
2022/12/27 08:51:06;;;;;;;;;8.50;8.50;;;;;13.75;75.69;101635.22;5059196;28;45443;-83
2022/12/27 08:53:31;;;;;;;;;8.00;8.00;;;;;13.78;75.26;101644.09;5059855;28;45922;-83
2022/12/27 08:55:57;;;;;;;;;9.00;8.75;;;;;13.89;75.29;101644.47;5059736;28;45461;-82
2022/12/27 08:58:23;;;;;;;;;6.00;5.00;;;;;14.08;75.20;101646.84;5060802;28;45426;-82
2022/12/27 09:00:49;;;;;;;;;5.00;5.00;;;;;14.33;74.08;101642.41;5059078;28;46102;-83
2022/12/27 09:03:19;;;;;;;;;6.00;5.33;;;;;14.49;73.49;101642.06;5061088;28;47074;-83
2022/12/27 09:05:45;;;;;;;;;10.00;10.00;;;;;14.57;72.53;101644.09;5054398;28;45425;-82
2022/12/27 09:08:11;;;;;;;;;9.67;9.00;;;;;14.51;72.56;101629.84;5053865;28;45336;-83
2022/12/27 09:10:38;;;;;;;;;6.00;4.67;;;;;14.56;72.43;101634.34;5049219;28;45430;-83
2022/12/27 09:13:03;;;;;;;;;7.67;7.67;;;;;14.46;72.94;101622.66;5052154;28;45412;-82
2022/12/27 09:15:29;;;;;;;;;6.00;6.00;;;;;14.49;72.88;101642.06;5059774;28;45477;-83
2022/12/27 09:17:54;;;;;;;;;9.00;8.00;;;;;13.66;72.33;101494.88;5061180;28;45423;-82
2022/12/27 09:20:20;;;;;;;;;10.00;10.00;;;;;14.37;72.87;101633.78;5062633;28;45347;-81
2022/12/27 09:22:45;;;;;;;;;9.00;9.00;;;;;14.37;73.41;101640.78;5059653;28;45352;-83
2022/12/27 09:25:11;;;;;;;;;6.00;6.00;;;;;14.39;73.56;101642.63;5058018;28;45600;-80
2022/12/27 09:27:37;;;;;;;;;5.00;5.00;;;;;14.41;73.63;101642.66;5059351;28;45459;-83
2022/12/27 09:30:05;;;;;;;;;4.33;4.00;;;;;14.41;73.39;101640.91;5058830;28;45962;-77
2022/12/27 09:32:31;;;;;;;;;3.33;3.33;;;;;14.49;73.48;101635.91;5058152;28;45442;-74
2022/12/27 09:34:56;;;;;;;;;2.00;2.00;;;;;14.57;73.27;101629.19;5059219;28;45370;-80
2022/12/27 09:37:22;;;;;;;;;3.00;3.00;;;;;14.65;72.70;101635.56;5058046;28;45615;-82
2022/12/27 09:39:47;;;;;;;;;3.00;3.00;;;;;14.77;72.60;101635.06;5058569;28;46078;-78
2022/12/27 09:42:38;;;;;;;;;5.00;4.00;;;;;14.89;72.09;101629.28;5057736;28;45726;-79
2022/12/27 09:45:20;;;;;;;;;7.00;6.00;;;;;14.95;71.85;101628.56;5058864;28;45550;-85
2022/12/27 09:47:52;;;;;;;;;3.00;3.00;;;;;14.95;71.73;101625.94;5059993;28;45447;-69
2022/12/27 09:50:26;;;;;;;;;12.33;12.33;;;;;15.03;71.68;101622.66;5057964;28;45361;-80
2022/12/27 09:53:16;;;;;;;;;56.50;43.50;;;;;15.06;72.03;101621.84;5058524;28;45802;-86
2022/12/27 09:55:50;;;;;;;;;56.00;44.00;;;;;15.21;71.44;101621.41;5058070;28;45427;-83
2022/12/27 09:58:37;;;;;;;;;40.75;34.25;;;;;15.31;70.95;101615.56;5058495;28;45461;-83
2022/12/27 10:01:19;;;;;;;;;26.25;24.75;;;;;15.43;70.86;101610.59;5057893;28;45434;-85
2022/12/27 10:03:44;;;;;;;;;20.25;17.25;;;;;15.61;70.14;101612.84;5056753;28;45691;-85
2022/12/27 10:06:30;;;;;;;;;15.33;14.67;;;;;15.70;69.30;101618.38;5054252;28;45423;-79
2022/12/27 10:09:11;;;;;;;;;15.00;14.00;;;;;15.79;69.08;101616.84;5055018;28;45574;-85
2022/12/27 10:11:57;;;;;;;;;6.00;5.33;;;;;15.81;68.92;101616.03;5057570;28;45466;-87
2022/12/27 10:14:38;;;;;;;;;7.00;6.00;;;;;15.86;69.33;101621.44;5055056;28;45491;-81
2022/12/27 10:17:25;;;;;;;;;9.33;7.00;;;;;15.68;68.67;101598.13;5054670;28;45469;-82
2022/12/27 10:20:10;;;;;;;;;8.67;7.33;;;;;15.77;69.21;101626.47;5056869;28;45797;-68
2022/12/27 10:22:44;;;;;;;;;12.00;10.33;;;;;15.76;69.77;101627.31;5053166;28;45606;-72
2022/12/27 10:25:13;;;;;;;;;6.00;5.67;;;;;15.67;69.99;101605.09;5056670;28;45516;-79
2022/12/27 10:27:40;;;;;;;;;7.33;6.33;;;;;15.75;70.20;101620.25;5057123;28;45527;-83
2022/12/27 10:30:13;;;;;;;;;18.67;16.33;;;;;15.64;69.66;101618.22;5057003;28;45326;-83
2022/12/27 10:32:39;;;;;;;;;11.33;10.33;;;;;15.56;70.96;101617.13;5054943;28;45770;-80
2022/12/27 10:35:05;;;;;;;;;14.75;13.75;;;;;15.58;71.11;101612.78;5053811;28;45731;-82
2022/12/27 10:37:31;;;;;;;;;8.00;6.67;;;;;15.57;70.58;101613.63;5057214;28;45466;-84
2022/12/27 10:40:06;;;;;;;;;24.75;21.00;;;;;15.45;71.03;101610.66;5057248;28;45418;-81
2022/12/27 10:42:41;;;;;;;;;10.00;8.00;;;;;15.48;71.37;101616.91;5056453;28;45955;-73
2022/12/27 10:45:34;;;;;;;;;7.33;7.00;;;;;15.49;71.23;101602.88;5042967;28;45423;-82
2022/12/27 10:48:20;;;;;;;;;8.00;7.00;;;;;15.43;71.31;101607.09;5058030;28;45414;-82
2022/12/27 10:51:00;;;;;;;;;7.00;6.00;;;;;15.34;71.39;101602.47;5057219;28;45650;-85
2022/12/27 10:53:32;;;;;;;;;6.33;6.33;;;;;15.30;71.55;101609.41;5056341;28;45735;-87
2022/12/27 10:56:28;;;;;;;;;5.00;5.00;;;;;14.95;71.32;101562.78;5051327;28;45467;-77
2022/12/27 10:59:15;;;;;;;;;7.00;6.67;;;;;15.22;71.76;101607.38;5055917;28;45473;-74
2022/12/27 11:01:43;;;;;;;;;8.67;7.33;;;;;15.05;71.44;101551.66;5054154;28;45410;-71
2022/12/27 11:04:09;;;;;;;;;9.00;8.00;;;;;15.34;71.38;101593.66;5055273;28;46652;-71
2022/12/27 11:06:36;;;;;;;;;9.00;8.00;;;;;15.16;71.41;101557.22;5056175;28;45336;-73
2022/12/27 11:09:22;;;;;;;;;17.00;13.25;;;;;15.37;71.87;101588.50;5046432;28;45508;-73
2022/12/27 11:11:48;;;;;;;;;16.00;14.75;;;;;15.50;71.75;101585.34;5052402;28;45496;-72
2022/12/27 11:14:17;;;;;;;;;14.00;13.00;;;;;15.65;71.68;101580.47;5055444;28;45903;-73
2022/12/27 11:16:44;;;;;;;;;16.75;15.25;;;;;15.81;71.19;101580.91;5056317;28;45411;-77
2022/12/27 11:19:26;;;;;;;;;27.25;26.25;;;;;15.89;71.34;101574.94;5056031;28;45446;-78
2022/12/27 11:21:54;;;;;;;;;13.25;13.00;;;;;16.03;70.85;101575.28;5056106;28;45368;-78
2022/12/27 11:24:21;;;;;;;;;14.67;12.00;;;;;15.81;70.24;101520.28;5056586;28;46209;-70
2022/12/27 11:26:55;;;;;;;;;11.00;11.00;;;;;16.18;70.02;101573.91;5056905;28;45404;-73
2022/12/27 11:29:25;;;;;;;;;10.33;10.33;;;;;16.33;70.10;101570.69;5057917;28;45535;-74
2022/12/27 11:31:52;;;;;;;;;7.67;7.00;;;;;16.49;69.95;101565.81;5021733;28;45452;-72
2022/12/27 11:34:42;;;;;;;;;5.50;5.50;;;;;16.60;69.14;101559.88;5036793;28;46081;-75
2022/12/27 11:37:14;;;;;;;;;8.00;7.67;;;;;16.58;68.79;101529.94;5051611;28;47150;-72
2022/12/27 11:39:50;;;;;;;;;6.00;6.00;;;;;16.92;67.18;101552.66;5056672;28;45573;-79
2022/12/27 11:42:37;;;;;;;;;8.00;8.00;;;;;16.96;67.20;101545.69;5056507;28;45507;-75
2022/12/27 11:45:22;;;;;;;;;7.67;6.33;;;;;17.01;67.75;101560.78;5055464;28;46205;-70
2022/12/27 11:48:29;;;;;;;;;7.00;6.67;;;;;17.05;67.13;101540.56;5055585;28;45490;-73
2022/12/27 11:51:15;;;;;;;;;9.33;8.00;;;;;17.32;66.86;101565.75;4974443;28;45483;-78
2022/12/27 11:54:02;;;;;;;;;9.00;8.00;;;;;17.35;66.67;101560.50;5054347;28;45585;-75
2022/12/27 11:56:35;;;;;;;;;11.00;10.00;;;;;17.30;66.51;101544.59;5056511;28;45463;-72
2022/12/27 11:59:07;;;;;;;;;9.00;7.67;;;;;17.47;66.48;101558.09;5055228;28;45466;-77
2022/12/27 12:02:30;;;;;;;;;10.00;8.00;;;;;17.38;66.86;101545.59;5055929;28;45621;-78
2022/12/27 12:05:02;;;;;;;;;7.33;6.00;;;;;17.47;66.61;101543.13;4930262;28;45759;-70
2022/12/27 12:07:37;;;;;;;;;9.33;8.00;;;;;17.52;66.49;101542.31;5038226;28;46389;-79
2022/12/27 12:10:37;;;;;;;;;9.33;9.33;;;;;17.55;66.46;101542.38;5055428;28;45474;-78
2022/12/27 12:13:33;;;;;;;;;8.00;8.00;;;;;17.57;66.33;101538.03;5010212;28;45424;-78
2022/12/27 12:16:05;;;;;;;;;9.00;9.00;;;;;17.61;65.71;101522.25;5056211;28;45286;-69
2022/12/27 12:18:53;;;;;;;;;8.00;7.00;;;;;17.53;65.76;101534.44;5054742;28;45501;-78
2022/12/27 12:21:24;;;;;;;;;7.00;7.00;;;;;17.60;65.83;101524.84;5055496;28;45395;-78
2022/12/27 12:24:11;;;;;;;;;7.00;7.00;;;;;17.67;65.60;101527.63;5056118;28;45297;-80
2022/12/27 12:27:07;;;;;;;;;11.33;11.00;;;;;17.66;65.05;101511.75;5055618;28;45671;-79
2022/12/27 12:30:03;;;;;;;;;7.67;7.33;;;;;17.67;65.37;101505.59;5055546;28;46217;-75
2022/12/27 12:32:41;;;;;;;;;7.33;7.00;;;;;17.79;65.11;101502.28;5055217;28;45593;-78
2022/12/27 12:35:18;;;;;;;;;7.33;7.33;;;;;17.86;65.34;101505.03;5055477;28;45732;-73
2022/12/27 12:38:01;;;;;;;;;17.25;16.25;;;;;17.98;64.54;101496.41;5041553;28;45664;-79
2022/12/27 12:40:31;;;;;;;;;9.00;8.00;;;;;17.67;64.54;101427.22;5055849;28;45445;-79
2022/12/27 12:43:15;;;;;;;;;10.00;9.67;;;;;17.97;64.28;101478.78;5055542;28;45402;-75
2022/12/27 12:46:04;;;;;;;;;9.00;9.00;;;;;17.99;64.25;101481.47;5055660;28;45304;-80
2022/12/27 12:48:47;;;;;;;;;7.67;7.33;;;;;18.01;64.68;101475.31;5055952;28;45305;-76
2022/12/27 12:51:50;;;;;;;;;11.67;9.67;;;;;18.00;64.54;101468.22;5054867;28;45493;-76
2022/12/27 12:54:34;;;;;;;;;8.67;7.67;;;;;17.95;64.35;101463.78;5055414;28;45411;-75
2022/12/27 12:57:30;;;;;;;;;9.67;8.67;;;;;17.98;64.54;101458.50;5054724;28;45606;-75
2022/12/27 13:00:09;;;;;;;;;8.00;8.00;;;;;17.69;64.24;101414.03;5056117;28;45451;-80
2022/12/27 13:03:12;;;;;;;;;8.67;8.67;;;;;18.00;64.19;101464.72;5055155;28;46250;-76
2022/12/27 13:05:57;;;;;;;;;10.33;9.67;;;;;18.06;64.70;101459.50;5055466;28;45506;-78
2022/12/27 13:08:37;;;;;;;;;8.00;8.00;;;;;18.24;64.09;101462.41;5053723;28;45228;-79
2022/12/27 13:11:20;;;;;;;;;8.67;8.00;;;;;18.34;63.38;101460.75;5041986;28;45379;-79
2022/12/27 13:14:31;;;;;;;;;12.00;11.00;;;;;18.20;63.98;101422.66;5055469;28;45999;-79
2022/12/27 13:17:21;;;;;;;;;11.00;8.67;;;;;18.11;63.65;101447.25;5055049;28;45655;-79
2022/12/27 13:20:06;;;;;;;;;9.33;8.00;;;;;18.03;64.20;101448.91;5050904;28;45588;-78
2022/12/27 13:22:44;;;;;;;;;7.00;6.67;;;;;18.16;64.30;101445.53;5040511;28;45567;-79
2022/12/27 13:25:51;;;;;;;;;8.33;7.00;;;;;18.17;63.68;101449.97;5057017;28;46071;-79
2022/12/27 13:28:39;;;;;;;;;9.00;8.33;;;;;18.18;63.96;101450.84;4995873;28;45652;-79